sensor_id;sensor_type;location;lat;lon;timestamp;P1;durP1;ratioP1;P2;durP2;ratioP2
10335;SDS011;5213;53.548;9.930;2023-07-31T00:00:10;9.45;;;3.17;;
10335;SDS011;5213;53.548;9.930;2023-07-31T00:02:36;8.65;;;3.33;;
10335;SDS011;5213;53.548;9.930;2023-07-31T00:05:02;7.18;;;3.05;;
10335;SDS011;5213;53.548;9.930;2023-07-31T00:07:28;6.78;;;2.90;;
10335;SDS011;5213;53.548;9.930;2023-07-31T00:09:53;6.88;;;2.50;;
10335;SDS011;5213;53.548;9.930;2023-07-31T00:12:19;7.18;;;3.05;;
10335;SDS011;5213;53.548;9.930;2023-07-31T00:14:45;6.25;;;2.70;;
10335;SDS011;5213;53.548;9.930;2023-07-31T00:17:11;7.60;;;2.70;;
10335;SDS011;5213;53.548;9.930;2023-07-31T00:19:37;7.75;;;2.58;;
10335;SDS011;5213;53.548;9.930;2023-07-31T00:22:03;5.97;;;2.55;;
10335;SDS011;5213;53.548;9.930;2023-07-31T00:24:28;8.00;;;3.17;;
10335;SDS011;5213;53.548;9.930;2023-07-31T00:26:54;5.15;;;2.83;;
10335;SDS011;5213;53.548;9.930;2023-07-31T00:29:20;10.05;;;3.08;;
10335;SDS011;5213;53.548;9.930;2023-07-31T00:31:45;7.03;;;2.97;;
10335;SDS011;5213;53.548;9.930;2023-07-31T00:34:11;7.28;;;3.05;;
10335;SDS011;5213;53.548;9.930;2023-07-31T00:36:37;8.55;;;2.60;;
10335;SDS011;5213;53.548;9.930;2023-07-31T00:39:02;5.75;;;2.97;;
10335;SDS011;5213;53.548;9.930;2023-07-31T00:41:34;7.10;;;2.92;;
10335;SDS011;5213;53.548;9.930;2023-07-31T00:44:00;6.78;;;2.85;;
10335;SDS011;5213;53.548;9.930;2023-07-31T00:46:25;8.18;;;3.38;;
10335;SDS011;5213;53.548;9.930;2023-07-31T00:48:51;9.38;;;3.45;;
10335;SDS011;5213;53.548;9.930;2023-07-31T00:51:16;6.53;;;3.28;;
10335;SDS011;5213;53.548;9.930;2023-07-31T00:53:42;6.15;;;3.17;;
10335;SDS011;5213;53.548;9.930;2023-07-31T00:56:08;6.30;;;3.00;;
10335;SDS011;5213;53.548;9.930;2023-07-31T00:58:34;6.43;;;2.72;;
10335;SDS011;5213;53.548;9.930;2023-07-31T01:01:00;7.25;;;2.75;;
10335;SDS011;5213;53.548;9.930;2023-07-31T01:03:26;5.25;;;2.70;;
10335;SDS011;5213;53.548;9.930;2023-07-31T01:11:29;5.85;;;3.05;;
10335;SDS011;5213;53.548;9.930;2023-07-31T01:13:56;8.63;;;2.90;;
10335;SDS011;5213;53.548;9.930;2023-07-31T01:16:22;6.18;;;2.85;;
10335;SDS011;5213;53.548;9.930;2023-07-31T01:18:48;7.63;;;3.45;;
10335;SDS011;5213;53.548;9.930;2023-07-31T01:26:47;8.40;;;3.67;;
10335;SDS011;5213;53.548;9.930;2023-07-31T01:32:02;6.97;;;3.20;;
10335;SDS011;5213;53.548;9.930;2023-07-31T01:34:30;6.28;;;3.35;;
10335;SDS011;5213;53.548;9.930;2023-07-31T01:36:57;5.18;;;3.00;;
10335;SDS011;5213;53.548;9.930;2023-07-31T01:39:26;7.68;;;3.38;;
10335;SDS011;5213;53.548;9.930;2023-07-31T01:41:51;4.80;;;3.20;;
10335;SDS011;5213;53.548;9.930;2023-07-31T01:44:17;5.30;;;2.97;;
10335;SDS011;5213;53.548;9.930;2023-07-31T01:46:43;6.22;;;3.60;;
10335;SDS011;5213;53.548;9.930;2023-07-31T01:49:08;4.40;;;2.67;;
10335;SDS011;5213;53.548;9.930;2023-07-31T01:51:34;5.95;;;3.20;;
10335;SDS011;5213;53.548;9.930;2023-07-31T01:54:00;5.93;;;3.72;;
10335;SDS011;5213;53.548;9.930;2023-07-31T01:56:26;6.82;;;3.65;;
10335;SDS011;5213;53.548;9.930;2023-07-31T01:58:52;10.27;;;3.83;;
10335;SDS011;5213;53.548;9.930;2023-07-31T02:01:18;7.05;;;3.50;;
10335;SDS011;5213;53.548;9.930;2023-07-31T02:03:43;7.75;;;4.07;;
10335;SDS011;5213;53.548;9.930;2023-07-31T02:06:09;7.28;;;3.55;;
10335;SDS011;5213;53.548;9.930;2023-07-31T02:08:35;8.25;;;3.85;;
10335;SDS011;5213;53.548;9.930;2023-07-31T02:11:01;7.05;;;3.70;;
10335;SDS011;5213;53.548;9.930;2023-07-31T02:13:26;5.97;;;3.72;;
10335;SDS011;5213;53.548;9.930;2023-07-31T02:15:52;4.20;;;3.45;;
10335;SDS011;5213;53.548;9.930;2023-07-31T02:18:18;6.55;;;3.50;;
10335;SDS011;5213;53.548;9.930;2023-07-31T02:20:43;5.90;;;3.30;;
10335;SDS011;5213;53.548;9.930;2023-07-31T02:23:14;6.22;;;3.35;;
10335;SDS011;5213;53.548;9.930;2023-07-31T02:25:39;8.40;;;3.60;;
10335;SDS011;5213;53.548;9.930;2023-07-31T02:28:05;4.28;;;3.08;;
10335;SDS011;5213;53.548;9.930;2023-07-31T02:30:31;7.07;;;3.50;;
10335;SDS011;5213;53.548;9.930;2023-07-31T02:32:56;7.43;;;3.53;;
10335;SDS011;5213;53.548;9.930;2023-07-31T02:35:22;7.93;;;3.63;;
10335;SDS011;5213;53.548;9.930;2023-07-31T02:37:48;5.47;;;3.53;;
10335;SDS011;5213;53.548;9.930;2023-07-31T02:40:13;7.50;;;3.90;;
10335;SDS011;5213;53.548;9.930;2023-07-31T02:42:39;5.43;;;3.13;;
10335;SDS011;5213;53.548;9.930;2023-07-31T02:45:05;9.15;;;3.70;;
10335;SDS011;5213;53.548;9.930;2023-07-31T02:47:31;6.20;;;3.58;;
10335;SDS011;5213;53.548;9.930;2023-07-31T02:49:57;9.07;;;3.35;;
10335;SDS011;5213;53.548;9.930;2023-07-31T02:52:22;6.20;;;3.40;;
10335;SDS011;5213;53.548;9.930;2023-07-31T02:54:48;6.57;;;3.45;;
10335;SDS011;5213;53.548;9.930;2023-07-31T02:57:13;7.53;;;3.28;;
10335;SDS011;5213;53.548;9.930;2023-07-31T02:59:40;5.00;;;3.30;;
10335;SDS011;5213;53.548;9.930;2023-07-31T03:02:06;4.88;;;3.20;;
10335;SDS011;5213;53.548;9.930;2023-07-31T03:04:32;9.45;;;3.40;;
10335;SDS011;5213;53.548;9.930;2023-07-31T03:06:58;6.43;;;3.53;;
10335;SDS011;5213;53.548;9.930;2023-07-31T03:09:23;5.90;;;3.53;;
10335;SDS011;5213;53.548;9.930;2023-07-31T03:11:49;5.32;;;3.55;;
10335;SDS011;5213;53.548;9.930;2023-07-31T03:14:15;7.47;;;3.47;;
10335;SDS011;5213;53.548;9.930;2023-07-31T03:16:40;7.25;;;3.90;;
10335;SDS011;5213;53.548;9.930;2023-07-31T03:19:06;5.10;;;3.38;;
10335;SDS011;5213;53.548;9.930;2023-07-31T03:21:31;6.15;;;3.58;;
10335;SDS011;5213;53.548;9.930;2023-07-31T03:23:57;7.22;;;3.70;;
10335;SDS011;5213;53.548;9.930;2023-07-31T03:26:23;6.25;;;3.25;;
10335;SDS011;5213;53.548;9.930;2023-07-31T03:28:48;3.63;;;3.30;;
10335;SDS011;5213;53.548;9.930;2023-07-31T03:31:14;6.32;;;3.25;;
10335;SDS011;5213;53.548;9.930;2023-07-31T03:33:40;4.28;;;3.33;;
10335;SDS011;5213;53.548;9.930;2023-07-31T03:36:05;5.47;;;3.10;;
10335;SDS011;5213;53.548;9.930;2023-07-31T03:38:31;5.20;;;3.40;;
10335;SDS011;5213;53.548;9.930;2023-07-31T03:40:57;3.72;;;3.35;;
10335;SDS011;5213;53.548;9.930;2023-07-31T03:43:23;3.72;;;3.35;;
10335;SDS011;5213;53.548;9.930;2023-07-31T03:45:50;4.70;;;3.00;;
10335;SDS011;5213;53.548;9.930;2023-07-31T03:48:15;5.68;;;2.95;;
10335;SDS011;5213;53.548;9.930;2023-07-31T03:50:41;3.70;;;3.00;;
10335;SDS011;5213;53.548;9.930;2023-07-31T03:53:07;4.57;;;3.00;;
10335;SDS011;5213;53.548;9.930;2023-07-31T03:55:33;4.53;;;2.75;;
10335;SDS011;5213;53.548;9.930;2023-07-31T03:57:58;3.60;;;2.80;;
10335;SDS011;5213;53.548;9.930;2023-07-31T04:00:25;4.22;;;2.97;;
10335;SDS011;5213;53.548;9.930;2023-07-31T04:02:52;3.85;;;3.33;;
10335;SDS011;5213;53.548;9.930;2023-07-31T04:05:18;6.00;;;3.33;;
10335;SDS011;5213;53.548;9.930;2023-07-31T04:07:43;4.18;;;2.58;;
10335;SDS011;5213;53.548;9.930;2023-07-31T04:10:09;3.88;;;3.03;;
10335;SDS011;5213;53.548;9.930;2023-07-31T04:12:35;5.10;;;3.05;;
10335;SDS011;5213;53.548;9.930;2023-07-31T04:15:01;3.28;;;2.97;;
10335;SDS011;5213;53.548;9.930;2023-07-31T04:17:26;3.20;;;2.63;;
10335;SDS011;5213;53.548;9.930;2023-07-31T04:19:52;3.15;;;2.70;;
10335;SDS011;5213;53.548;9.930;2023-07-31T04:22:17;3.42;;;2.95;;
10335;SDS011;5213;53.548;9.930;2023-07-31T04:24:43;3.40;;;3.10;;
10335;SDS011;5213;53.548;9.930;2023-07-31T04:27:09;4.80;;;2.80;;
10335;SDS011;5213;53.548;9.930;2023-07-31T04:29:35;3.08;;;2.65;;
10335;SDS011;5213;53.548;9.930;2023-07-31T04:32:00;2.80;;;2.60;;
10335;SDS011;5213;53.548;9.930;2023-07-31T04:34:29;3.60;;;2.95;;
10335;SDS011;5213;53.548;9.930;2023-07-31T04:36:55;4.00;;;2.75;;
10335;SDS011;5213;53.548;9.930;2023-07-31T04:39:20;4.00;;;2.60;;
10335;SDS011;5213;53.548;9.930;2023-07-31T04:41:46;3.25;;;2.80;;
10335;SDS011;5213;53.548;9.930;2023-07-31T04:44:11;3.85;;;2.60;;
10335;SDS011;5213;53.548;9.930;2023-07-31T04:46:37;2.70;;;2.50;;
10335;SDS011;5213;53.548;9.930;2023-07-31T04:49:03;3.10;;;2.80;;
10335;SDS011;5213;53.548;9.930;2023-07-31T04:51:28;3.80;;;3.10;;
10335;SDS011;5213;53.548;9.930;2023-07-31T04:53:54;3.17;;;2.88;;
10335;SDS011;5213;53.548;9.930;2023-07-31T04:56:21;3.85;;;2.90;;
10335;SDS011;5213;53.548;9.930;2023-07-31T04:58:46;3.22;;;2.90;;
10335;SDS011;5213;53.548;9.930;2023-07-31T05:01:12;3.00;;;2.80;;
10335;SDS011;5213;53.548;9.930;2023-07-31T05:03:37;2.92;;;2.72;;
10335;SDS011;5213;53.548;9.930;2023-07-31T05:06:03;3.17;;;2.47;;
10335;SDS011;5213;53.548;9.930;2023-07-31T05:08:29;3.05;;;2.80;;
10335;SDS011;5213;53.548;9.930;2023-07-31T05:10:54;2.70;;;2.50;;
10335;SDS011;5213;53.548;9.930;2023-07-31T05:13:20;3.05;;;2.75;;
10335;SDS011;5213;53.548;9.930;2023-07-31T05:15:46;2.80;;;2.60;;
10335;SDS011;5213;53.548;9.930;2023-07-31T05:18:14;2.83;;;2.30;;
10335;SDS011;5213;53.548;9.930;2023-07-31T05:20:40;3.88;;;2.70;;
10335;SDS011;5213;53.548;9.930;2023-07-31T05:23:05;3.35;;;2.95;;
10335;SDS011;5213;53.548;9.930;2023-07-31T05:25:31;2.53;;;2.38;;
10335;SDS011;5213;53.548;9.930;2023-07-31T05:27:57;3.03;;;2.80;;
10335;SDS011;5213;53.548;9.930;2023-07-31T05:30:23;2.85;;;2.65;;
10335;SDS011;5213;53.548;9.930;2023-07-31T05:32:48;3.08;;;2.85;;
10335;SDS011;5213;53.548;9.930;2023-07-31T05:35:14;3.05;;;2.80;;
10335;SDS011;5213;53.548;9.930;2023-07-31T05:37:40;2.92;;;2.70;;
10335;SDS011;5213;53.548;9.930;2023-07-31T05:40:07;3.80;;;2.85;;
10335;SDS011;5213;53.548;9.930;2023-07-31T05:42:33;2.80;;;2.60;;
10335;SDS011;5213;53.548;9.930;2023-07-31T05:44:59;2.80;;;2.60;;
10335;SDS011;5213;53.548;9.930;2023-07-31T05:47:25;2.85;;;2.65;;
10335;SDS011;5213;53.548;9.930;2023-07-31T05:49:50;3.50;;;3.20;;
10335;SDS011;5213;53.548;9.930;2023-07-31T05:52:18;3.30;;;3.10;;
10335;SDS011;5213;53.548;9.930;2023-07-31T05:54:44;3.50;;;3.22;;
10335;SDS011;5213;53.548;9.930;2023-07-31T05:57:11;3.45;;;3.22;;
10335;SDS011;5213;53.548;9.930;2023-07-31T05:59:36;3.22;;;3.03;;
10335;SDS011;5213;53.548;9.930;2023-07-31T06:02:02;2.75;;;2.58;;
10335;SDS011;5213;53.548;9.930;2023-07-31T06:04:27;2.92;;;2.72;;
10335;SDS011;5213;53.548;9.930;2023-07-31T06:06:53;3.10;;;2.90;;
10335;SDS011;5213;53.548;9.930;2023-07-31T06:09:19;2.78;;;2.58;;
10335;SDS011;5213;53.548;9.930;2023-07-31T06:11:45;2.92;;;2.80;;
10335;SDS011;5213;53.548;9.930;2023-07-31T06:14:11;3.00;;;2.70;;
10335;SDS011;5213;53.548;9.930;2023-07-31T06:16:37;2.92;;;2.72;;
10335;SDS011;5213;53.548;9.930;2023-07-31T06:19:03;3.22;;;3.00;;
10335;SDS011;5213;53.548;9.930;2023-07-31T06:21:28;3.08;;;2.88;;
10335;SDS011;5213;53.548;9.930;2023-07-31T06:23:54;3.08;;;2.88;;
10335;SDS011;5213;53.548;9.930;2023-07-31T06:26:20;2.95;;;2.75;;
10335;SDS011;5213;53.548;9.930;2023-07-31T06:28:46;2.80;;;2.53;;
10335;SDS011;5213;53.548;9.930;2023-07-31T06:31:11;2.90;;;2.70;;
10335;SDS011;5213;53.548;9.930;2023-07-31T06:33:37;3.15;;;2.95;;
10335;SDS011;5213;53.548;9.930;2023-07-31T06:36:03;2.58;;;2.40;;
10335;SDS011;5213;53.548;9.930;2023-07-31T06:38:28;2.88;;;2.58;;
10335;SDS011;5213;53.548;9.930;2023-07-31T06:40:54;2.80;;;2.60;;
10335;SDS011;5213;53.548;9.930;2023-07-31T06:43:20;2.90;;;2.70;;
10335;SDS011;5213;53.548;9.930;2023-07-31T06:45:46;2.75;;;2.58;;
10335;SDS011;5213;53.548;9.930;2023-07-31T06:48:13;3.20;;;3.00;;
10335;SDS011;5213;53.548;9.930;2023-07-31T06:50:39;2.92;;;2.72;;
10335;SDS011;5213;53.548;9.930;2023-07-31T06:53:05;2.70;;;2.50;;
10335;SDS011;5213;53.548;9.930;2023-07-31T06:55:30;2.53;;;2.42;;
10335;SDS011;5213;53.548;9.930;2023-07-31T06:57:56;2.85;;;2.72;;
10335;SDS011;5213;53.548;9.930;2023-07-31T07:00:22;3.40;;;3.10;;
10335;SDS011;5213;53.548;9.930;2023-07-31T07:02:48;2.70;;;2.60;;
10335;SDS011;5213;53.548;9.930;2023-07-31T07:05:14;2.70;;;2.60;;
10335;SDS011;5213;53.548;9.930;2023-07-31T07:07:42;2.90;;;2.70;;
10335;SDS011;5213;53.548;9.930;2023-07-31T07:10:08;2.90;;;2.80;;
10335;SDS011;5213;53.548;9.930;2023-07-31T07:12:34;3.53;;;2.70;;
10335;SDS011;5213;53.548;9.930;2023-07-31T07:15:00;3.15;;;2.92;;
10335;SDS011;5213;53.548;9.930;2023-07-31T07:17:27;3.17;;;2.95;;
10335;SDS011;5213;53.548;9.930;2023-07-31T07:19:57;3.53;;;3.22;;
10335;SDS011;5213;53.548;9.930;2023-07-31T07:22:23;2.70;;;2.50;;
10335;SDS011;5213;53.548;9.930;2023-07-31T07:24:49;3.05;;;2.95;;
10335;SDS011;5213;53.548;9.930;2023-07-31T07:27:14;2.70;;;2.50;;
10335;SDS011;5213;53.548;9.930;2023-07-31T07:29:40;2.60;;;2.40;;
10335;SDS011;5213;53.548;9.930;2023-07-31T07:32:06;2.70;;;2.50;;
10335;SDS011;5213;53.548;9.930;2023-07-31T07:34:32;2.45;;;2.35;;
10335;SDS011;5213;53.548;9.930;2023-07-31T07:36:57;2.58;;;2.33;;
10335;SDS011;5213;53.548;9.930;2023-07-31T07:39:23;2.53;;;2.30;;
10335;SDS011;5213;53.548;9.930;2023-07-31T07:41:49;2.25;;;2.15;;
10335;SDS011;5213;53.548;9.930;2023-07-31T07:44:15;2.10;;;2.00;;
10335;SDS011;5213;53.548;9.930;2023-07-31T07:46:41;2.40;;;2.30;;
10335;SDS011;5213;53.548;9.930;2023-07-31T07:49:08;2.38;;;2.28;;
10335;SDS011;5213;53.548;9.930;2023-07-31T07:51:34;2.35;;;2.22;;
10335;SDS011;5213;53.548;9.930;2023-07-31T07:53:59;2.38;;;2.28;;
10335;SDS011;5213;53.548;9.930;2023-07-31T07:56:25;2.53;;;2.35;;
10335;SDS011;5213;53.548;9.930;2023-07-31T07:58:51;2.00;;;1.90;;
10335;SDS011;5213;53.548;9.930;2023-07-31T08:01:18;3.00;;;2.45;;
10335;SDS011;5213;53.548;9.930;2023-07-31T08:03:43;2.00;;;1.90;;
10335;SDS011;5213;53.548;9.930;2023-07-31T08:06:09;1.90;;;1.80;;
10335;SDS011;5213;53.548;9.930;2023-07-31T08:08:35;2.00;;;1.90;;
10335;SDS011;5213;53.548;9.930;2023-07-31T08:11:01;1.80;;;1.70;;
10335;SDS011;5213;53.548;9.930;2023-07-31T08:13:27;1.73;;;1.63;;
10335;SDS011;5213;53.548;9.930;2023-07-31T08:15:53;1.52;;;1.48;;
10335;SDS011;5213;53.548;9.930;2023-07-31T08:18:19;1.73;;;1.70;;
10335;SDS011;5213;53.548;9.930;2023-07-31T08:20:45;1.80;;;1.70;;
10335;SDS011;5213;53.548;9.930;2023-07-31T08:23:11;1.80;;;1.70;;
10335;SDS011;5213;53.548;9.930;2023-07-31T08:25:37;1.60;;;1.50;;
10335;SDS011;5213;53.548;9.930;2023-07-31T08:28:03;1.77;;;1.60;;
10335;SDS011;5213;53.548;9.930;2023-07-31T08:30:30;1.20;;;1.20;;
10335;SDS011;5213;53.548;9.930;2023-07-31T08:32:56;1.27;;;1.27;;
10335;SDS011;5213;53.548;9.930;2023-07-31T08:35:24;1.30;;;1.30;;
10335;SDS011;5213;53.548;9.930;2023-07-31T08:37:50;1.30;;;1.30;;
10335;SDS011;5213;53.548;9.930;2023-07-31T08:40:16;1.30;;;1.30;;
10335;SDS011;5213;53.548;9.930;2023-07-31T08:42:48;1.67;;;1.40;;
10335;SDS011;5213;53.548;9.930;2023-07-31T08:45:17;1.10;;;1.10;;
10335;SDS011;5213;53.548;9.930;2023-07-31T08:47:44;1.10;;;1.10;;
10335;SDS011;5213;53.548;9.930;2023-07-31T08:50:12;1.38;;;1.35;;
10335;SDS011;5213;53.548;9.930;2023-07-31T08:52:38;1.00;;;1.00;;
10335;SDS011;5213;53.548;9.930;2023-07-31T08:55:05;1.38;;;1.27;;
10335;SDS011;5213;53.548;9.930;2023-07-31T08:57:31;1.80;;;1.20;;
10335;SDS011;5213;53.548;9.930;2023-07-31T08:59:59;1.20;;;1.20;;
10335;SDS011;5213;53.548;9.930;2023-07-31T09:02:25;1.10;;;1.10;;
10335;SDS011;5213;53.548;9.930;2023-07-31T09:05:02;1.00;;;1.00;;
10335;SDS011;5213;53.548;9.930;2023-07-31T09:07:30;1.10;;;1.10;;
10335;SDS011;5213;53.548;9.930;2023-07-31T09:09:58;1.20;;;1.20;;
10335;SDS011;5213;53.548;9.930;2023-07-31T09:12:25;0.98;;;0.98;;
10335;SDS011;5213;53.548;9.930;2023-07-31T09:14:51;1.27;;;1.27;;
10335;SDS011;5213;53.548;9.930;2023-07-31T09:17:16;1.10;;;1.10;;
10335;SDS011;5213;53.548;9.930;2023-07-31T09:20:19;1.48;;;1.33;;
10335;SDS011;5213;53.548;9.930;2023-07-31T09:22:46;1.20;;;1.20;;
10335;SDS011;5213;53.548;9.930;2023-07-31T09:25:17;1.30;;;1.30;;
10335;SDS011;5213;53.548;9.930;2023-07-31T09:27:47;1.08;;;1.08;;
10335;SDS011;5213;53.548;9.930;2023-07-31T09:30:26;1.00;;;0.95;;
10335;SDS011;5213;53.548;9.930;2023-07-31T09:33:00;1.30;;;1.20;;
10335;SDS011;5213;53.548;9.930;2023-07-31T09:35:28;1.35;;;0.95;;
10335;SDS011;5213;53.548;9.930;2023-07-31T09:38:00;2.22;;;1.23;;
10335;SDS011;5213;53.548;9.930;2023-07-31T09:40:31;1.50;;;1.40;;
10335;SDS011;5213;53.548;9.930;2023-07-31T09:42:59;1.10;;;1.10;;
10335;SDS011;5213;53.548;9.930;2023-07-31T09:45:26;1.05;;;1.05;;
10335;SDS011;5213;53.548;9.930;2023-07-31T09:47:53;1.30;;;1.20;;
10335;SDS011;5213;53.548;9.930;2023-07-31T09:50:23;1.45;;;1.35;;
10335;SDS011;5213;53.548;9.930;2023-07-31T09:52:49;1.48;;;1.00;;
10335;SDS011;5213;53.548;9.930;2023-07-31T09:55:16;1.13;;;1.13;;
10335;SDS011;5213;53.548;9.930;2023-07-31T09:57:44;1.30;;;1.20;;
10335;SDS011;5213;53.548;9.930;2023-07-31T10:00:12;1.20;;;1.20;;
10335;SDS011;5213;53.548;9.930;2023-07-31T10:02:39;1.20;;;1.20;;
10335;SDS011;5213;53.548;9.930;2023-07-31T10:05:05;1.25;;;1.10;;
10335;SDS011;5213;53.548;9.930;2023-07-31T10:07:34;0.88;;;0.88;;
10335;SDS011;5213;53.548;9.930;2023-07-31T10:10:06;1.00;;;1.00;;
10335;SDS011;5213;53.548;9.930;2023-07-31T10:12:33;1.00;;;1.00;;
10335;SDS011;5213;53.548;9.930;2023-07-31T10:14:59;0.90;;;0.90;;
10335;SDS011;5213;53.548;9.930;2023-07-31T10:17:26;0.70;;;0.70;;
10335;SDS011;5213;53.548;9.930;2023-07-31T10:19:52;0.80;;;0.80;;
10335;SDS011;5213;53.548;9.930;2023-07-31T10:22:21;1.75;;;0.90;;
10335;SDS011;5213;53.548;9.930;2023-07-31T10:24:48;0.77;;;0.77;;
10335;SDS011;5213;53.548;9.930;2023-07-31T10:27:15;0.60;;;0.60;;
10335;SDS011;5213;53.548;9.930;2023-07-31T10:29:41;0.60;;;0.60;;
10335;SDS011;5213;53.548;9.930;2023-07-31T10:32:12;0.60;;;0.60;;
10335;SDS011;5213;53.548;9.930;2023-07-31T10:34:39;0.73;;;0.73;;
10335;SDS011;5213;53.548;9.930;2023-07-31T10:42:38;0.90;;;0.70;;
10335;SDS011;5213;53.548;9.930;2023-07-31T10:45:10;0.80;;;0.80;;
10335;SDS011;5213;53.548;9.930;2023-07-31T10:47:42;0.82;;;0.82;;
10335;SDS011;5213;53.548;9.930;2023-07-31T10:50:14;1.00;;;1.00;;
10335;SDS011;5213;53.548;9.930;2023-07-31T10:52:48;1.30;;;1.20;;
10335;SDS011;5213;53.548;9.930;2023-07-31T10:57:53;1.98;;;1.88;;
10335;SDS011;5213;53.548;9.930;2023-07-31T11:00:28;1.92;;;1.83;;
10335;SDS011;5213;53.548;9.930;2023-07-31T11:08:24;2.10;;;2.00;;
10335;SDS011;5213;53.548;9.930;2023-07-31T11:13:26;3.70;;;3.40;;
10335;SDS011;5213;53.548;9.930;2023-07-31T11:15:52;3.35;;;3.10;;
10335;SDS011;5213;53.548;9.930;2023-07-31T11:18:18;3.50;;;3.13;;
10335;SDS011;5213;53.548;9.930;2023-07-31T11:20:43;4.38;;;3.65;;
10335;SDS011;5213;53.548;9.930;2023-07-31T11:23:10;3.13;;;2.83;;
10335;SDS011;5213;53.548;9.930;2023-07-31T11:25:37;4.90;;;3.25;;
10335;SDS011;5213;53.548;9.930;2023-07-31T11:28:07;4.57;;;3.72;;
10335;SDS011;5213;53.548;9.930;2023-07-31T11:30:40;3.67;;;3.38;;
10335;SDS011;5213;53.548;9.930;2023-07-31T11:33:07;4.20;;;3.70;;
10335;SDS011;5213;53.548;9.930;2023-07-31T11:35:34;2.97;;;2.78;;
10335;SDS011;5213;53.548;9.930;2023-07-31T11:38:06;3.22;;;2.35;;
10335;SDS011;5213;53.548;9.930;2023-07-31T11:40:40;3.30;;;3.00;;
10335;SDS011;5213;53.548;9.930;2023-07-31T11:43:07;3.95;;;3.30;;
10335;SDS011;5213;53.548;9.930;2023-07-31T11:45:32;4.25;;;3.10;;
10335;SDS011;5213;53.548;9.930;2023-07-31T11:48:00;4.05;;;3.10;;
10335;SDS011;5213;53.548;9.930;2023-07-31T11:50:26;5.45;;;3.70;;
10335;SDS011;5213;53.548;9.930;2023-07-31T11:52:59;1.70;;;1.60;;
10335;SDS011;5213;53.548;9.930;2023-07-31T11:55:26;1.70;;;1.60;;
10335;SDS011;5213;53.548;9.930;2023-07-31T11:57:55;1.10;;;1.10;;
10335;SDS011;5213;53.548;9.930;2023-07-31T12:00:22;1.30;;;1.20;;
10335;SDS011;5213;53.548;9.930;2023-07-31T12:02:48;1.90;;;1.55;;
10335;SDS011;5213;53.548;9.930;2023-07-31T12:05:15;1.50;;;1.40;;
10335;SDS011;5213;53.548;9.930;2023-07-31T12:07:45;1.60;;;1.50;;
10335;SDS011;5213;53.548;9.930;2023-07-31T12:10:22;1.23;;;1.13;;
10335;SDS011;5213;53.548;9.930;2023-07-31T12:15:28;1.33;;;1.30;;
10335;SDS011;5213;53.548;9.930;2023-07-31T12:17:57;1.10;;;1.10;;
10335;SDS011;5213;53.548;9.930;2023-07-31T12:20:23;1.45;;;1.10;;
10335;SDS011;5213;53.548;9.930;2023-07-31T12:22:49;1.85;;;1.38;;
10335;SDS011;5213;53.548;9.930;2023-07-31T12:25:15;4.00;;;1.50;;
10335;SDS011;5213;53.548;9.930;2023-07-31T12:27:44;1.10;;;1.10;;
10335;SDS011;5213;53.548;9.930;2023-07-31T12:32:57;0.82;;;0.82;;
10335;SDS011;5213;53.548;9.930;2023-07-31T12:35:35;1.60;;;1.15;;
10335;SDS011;5213;53.548;9.930;2023-07-31T12:38:06;1.15;;;1.15;;
10335;SDS011;5213;53.548;9.930;2023-07-31T12:40:32;1.23;;;1.02;;
10335;SDS011;5213;53.548;9.930;2023-07-31T12:42:57;1.38;;;1.30;;
10335;SDS011;5213;53.548;9.930;2023-07-31T12:45:26;2.35;;;1.60;;
10335;SDS011;5213;53.548;9.930;2023-07-31T12:47:52;1.50;;;1.40;;
10335;SDS011;5213;53.548;9.930;2023-07-31T12:50:18;4.15;;;2.03;;
10335;SDS011;5213;53.548;9.930;2023-07-31T12:52:43;2.53;;;2.33;;
10335;SDS011;5213;53.548;9.930;2023-07-31T12:55:09;5.32;;;4.65;;
10335;SDS011;5213;53.548;9.930;2023-07-31T12:57:36;3.80;;;3.47;;
10335;SDS011;5213;53.548;9.930;2023-07-31T13:00:02;3.72;;;3.20;;
10335;SDS011;5213;53.548;9.930;2023-07-31T13:02:28;2.85;;;2.63;;
10335;SDS011;5213;53.548;9.930;2023-07-31T13:04:54;2.05;;;1.95;;
10335;SDS011;5213;53.548;9.930;2023-07-31T13:07:21;1.30;;;1.30;;
10335;SDS011;5213;53.548;9.930;2023-07-31T13:09:47;2.00;;;1.80;;
10335;SDS011;5213;53.548;9.930;2023-07-31T13:12:13;1.48;;;1.42;;
10335;SDS011;5213;53.548;9.930;2023-07-31T13:14:39;1.67;;;1.58;;
10335;SDS011;5213;53.548;9.930;2023-07-31T13:17:05;2.55;;;2.35;;
10335;SDS011;5213;53.548;9.930;2023-07-31T13:19:31;1.95;;;1.70;;
10335;SDS011;5213;53.548;9.930;2023-07-31T13:21:56;3.13;;;2.03;;
10335;SDS011;5213;53.548;9.930;2023-07-31T13:24:22;1.48;;;1.40;;
10335;SDS011;5213;53.548;9.930;2023-07-31T13:26:48;3.08;;;2.40;;
10335;SDS011;5213;53.548;9.930;2023-07-31T13:29:13;2.10;;;2.00;;
10335;SDS011;5213;53.548;9.930;2023-07-31T13:31:39;2.90;;;2.70;;
10335;SDS011;5213;53.548;9.930;2023-07-31T13:34:05;3.10;;;2.80;;
10335;SDS011;5213;53.548;9.930;2023-07-31T13:36:30;2.80;;;2.17;;
10335;SDS011;5213;53.548;9.930;2023-07-31T13:38:56;2.50;;;2.30;;
10335;SDS011;5213;53.548;9.930;2023-07-31T13:41:22;2.78;;;2.03;;
10335;SDS011;5213;53.548;9.930;2023-07-31T13:43:48;2.13;;;2.03;;
10335;SDS011;5213;53.548;9.930;2023-07-31T13:46:13;2.42;;;2.22;;
10335;SDS011;5213;53.548;9.930;2023-07-31T13:48:39;2.85;;;2.65;;
10335;SDS011;5213;53.548;9.930;2023-07-31T13:51:04;2.20;;;2.10;;
10335;SDS011;5213;53.548;9.930;2023-07-31T13:53:30;2.53;;;2.33;;
10335;SDS011;5213;53.548;9.930;2023-07-31T13:55:56;2.38;;;2.20;;
10335;SDS011;5213;53.548;9.930;2023-07-31T13:58:22;2.10;;;1.90;;
10335;SDS011;5213;53.548;9.930;2023-07-31T14:00:48;1.95;;;1.80;;
10335;SDS011;5213;53.548;9.930;2023-07-31T14:03:13;1.88;;;1.73;;
10335;SDS011;5213;53.548;9.930;2023-07-31T14:05:39;1.90;;;1.80;;
10335;SDS011;5213;53.548;9.930;2023-07-31T14:08:05;4.10;;;1.60;;
10335;SDS011;5213;53.548;9.930;2023-07-31T14:10:30;2.33;;;1.60;;
10335;SDS011;5213;53.548;9.930;2023-07-31T14:12:56;1.73;;;1.63;;
10335;SDS011;5213;53.548;9.930;2023-07-31T14:15:22;3.35;;;1.77;;
10335;SDS011;5213;53.548;9.930;2023-07-31T14:17:47;1.40;;;1.40;;
10335;SDS011;5213;53.548;9.930;2023-07-31T14:20:13;1.20;;;1.10;;
10335;SDS011;5213;53.548;9.930;2023-07-31T14:22:39;1.38;;;1.20;;
10335;SDS011;5213;53.548;9.930;2023-07-31T14:25:05;1.00;;;1.00;;
10335;SDS011;5213;53.548;9.930;2023-07-31T14:27:30;1.50;;;1.40;;
10335;SDS011;5213;53.548;9.930;2023-07-31T14:29:56;2.08;;;1.80;;
10335;SDS011;5213;53.548;9.930;2023-07-31T14:32:22;2.85;;;2.28;;
10335;SDS011;5213;53.548;9.930;2023-07-31T14:34:50;2.45;;;2.25;;
10335;SDS011;5213;53.548;9.930;2023-07-31T14:37:16;3.95;;;2.85;;
10335;SDS011;5213;53.548;9.930;2023-07-31T14:39:42;4.05;;;3.08;;
10335;SDS011;5213;53.548;9.930;2023-07-31T14:42:08;2.33;;;2.03;;
10335;SDS011;5213;53.548;9.930;2023-07-31T14:44:34;2.55;;;2.20;;
10335;SDS011;5213;53.548;9.930;2023-07-31T14:47:00;1.92;;;1.83;;
10335;SDS011;5213;53.548;9.930;2023-07-31T14:49:25;2.08;;;1.88;;
10335;SDS011;5213;53.548;9.930;2023-07-31T14:51:53;1.60;;;1.50;;
10335;SDS011;5213;53.548;9.930;2023-07-31T14:54:19;1.50;;;1.40;;
10335;SDS011;5213;53.548;9.930;2023-07-31T14:56:44;1.90;;;1.80;;
10335;SDS011;5213;53.548;9.930;2023-07-31T14:59:10;2.08;;;1.98;;
10335;SDS011;5213;53.548;9.930;2023-07-31T15:01:36;2.53;;;2.33;;
10335;SDS011;5213;53.548;9.930;2023-07-31T15:04:02;2.13;;;2.03;;
10335;SDS011;5213;53.548;9.930;2023-07-31T15:06:28;2.08;;;1.98;;
10335;SDS011;5213;53.548;9.930;2023-07-31T15:08:53;1.70;;;1.70;;
10335;SDS011;5213;53.548;9.930;2023-07-31T15:11:19;2.00;;;1.90;;
10335;SDS011;5213;53.548;9.930;2023-07-31T15:13:44;2.00;;;1.90;;
10335;SDS011;5213;53.548;9.930;2023-07-31T15:16:10;1.80;;;1.70;;
10335;SDS011;5213;53.548;9.930;2023-07-31T15:18:35;2.03;;;1.92;;
10335;SDS011;5213;53.548;9.930;2023-07-31T15:21:01;2.00;;;1.90;;
10335;SDS011;5213;53.548;9.930;2023-07-31T15:23:27;2.15;;;2.05;;
10335;SDS011;5213;53.548;9.930;2023-07-31T15:25:52;2.00;;;1.90;;
10335;SDS011;5213;53.548;9.930;2023-07-31T15:28:18;2.03;;;1.92;;
10335;SDS011;5213;53.548;9.930;2023-07-31T15:30:44;2.30;;;2.15;;